RJOE weather

Akeno Airport
Mie Prefecture, Japan

Public forecast

Using degrees Celsius for public forecast. Weather courtesy of forecast.io.

METAR (pilot weather report)

Report is more than 6 hours old.

Retrieved 2019/07/16 02:46 UTC (1 day ago):

RJOE 160246Z 10008KT 9999 FEW008 BKN015 BKN040 24/21 Q1011 RMK 1ST008 5CU015 5SC040 A2988

TAF (pilot weather forecast)

Closest forecast is Chubu Centrair International Airport, 20.6 nm (38.1 km) NNE. Retrieved 2019/07/17 12:30 UTC (0 seconds ago):

TAF RJGG 171105Z 1712/1818 13009KT 9999 FEW008 BKN015 TEMPO 1718/1721 4000 -SHRA BR FEW005 BKN008 TEMPO 1721/1800 3000 TSRA BR FEW005 BKN008 FEW015CB TEMPO 1809/1815 3000 TSRA BR FEW005 BKN008 FEW015CB TEMPO 1815/1818 4000 SHRA BR FEW005 BKN008